createdAt,value
2023-02-13T00:03:46.405Z,10.48
2023-02-13T00:06:49.737Z,10.43
2023-02-13T00:09:52.537Z,12.07
2023-02-13T00:12:55.359Z,12.55
2023-02-13T00:16:00.925Z,12.18
2023-02-13T00:19:03.824Z,13.65
2023-02-13T00:22:06.742Z,14.65
2023-02-13T00:25:09.840Z,15.43
2023-02-13T00:28:12.744Z,14.65
2023-02-13T00:31:19.179Z,15.88
2023-02-13T00:34:23.330Z,16.67
2023-02-13T00:37:26.502Z,16.45
2023-02-13T00:40:29.333Z,17.70
2023-02-13T00:43:32.611Z,17.05
2023-02-13T00:46:35.583Z,17.50
2023-02-13T00:49:38.382Z,16.55
2023-02-13T00:52:41.196Z,15.38
2023-02-13T00:55:44.902Z,16.08
2023-02-13T00:58:47.854Z,15.35
2023-02-13T01:01:51.137Z,14.48
2023-02-13T01:04:54.043Z,14.43
2023-02-13T01:07:57.070Z,14.82
2023-02-13T01:11:00.355Z,15.38
2023-02-13T01:17:06.225Z,16.12
2023-02-13T01:20:11.311Z,16.80
2023-02-13T01:23:14.177Z,19.42
2023-02-13T01:26:19.813Z,21.12
2023-02-13T01:29:22.712Z,21.62
2023-02-13T01:32:25.748Z,23.38
2023-02-13T01:35:28.567Z,22.77
2023-02-13T01:38:31.392Z,25.33
2023-02-13T01:41:35.701Z,24.75
2023-02-13T01:44:52.176Z,23.75
2023-02-13T01:48:11.200Z,23.33
2023-02-13T01:51:20.364Z,25.37
2023-02-13T01:54:31.263Z,25.05
2023-02-13T01:57:36.980Z,22.65
2023-02-13T02:00:40.404Z,25.60
2023-02-13T02:03:53.137Z,24.63
2023-02-13T02:07:00.505Z,26.62
2023-02-13T02:10:10.256Z,27.80
2023-02-13T02:13:19.343Z,26.27
2023-02-13T02:16:22.850Z,26.35
2023-02-13T02:19:40.761Z,26.50
2023-02-13T02:22:46.798Z,25.60
2023-02-13T02:26:04.648Z,27.27
2023-02-13T02:29:29.852Z,26.30
2023-02-13T02:32:58.348Z,26.87
2023-02-13T02:36:33.188Z,26.25
2023-02-13T02:39:57.786Z,28.08
2023-02-13T02:43:16.007Z,29.08
2023-02-13T02:46:37.559Z,29.75
2023-02-13T02:49:59.926Z,30.50
2023-02-13T02:53:24.455Z,30.50
2023-02-13T02:56:34.772Z,30.05
2023-02-13T02:59:59.257Z,31.33
2023-02-13T03:03:23.911Z,29.37
2023-02-13T03:06:35.932Z,32.63
2023-02-13T03:10:05.565Z,32.60
2023-02-13T03:13:23.905Z,35.20
2023-02-13T03:16:45.540Z,33.15
2023-02-13T03:20:38.734Z,34.75
2023-02-13T03:24:04.928Z,31.75
2023-02-13T03:27:44.861Z,32.80
2023-02-13T03:30:50.304Z,31.52
2023-02-13T03:34:25.433Z,31.83
2023-02-13T03:37:52.763Z,32.15
2023-02-13T03:41:20.683Z,30.12
2023-02-13T03:45:09.490Z,31.23
2023-02-13T03:48:35.385Z,31.85
2023-02-13T03:51:52.342Z,33.17
2023-02-13T03:55:22.979Z,33.75
2023-02-13T03:58:53.998Z,33.33
2023-02-13T04:02:02.862Z,31.30
2023-02-13T04:05:15.568Z,30.58
2023-02-13T04:08:18.297Z,30.83
2023-02-13T04:11:30.633Z,29.45
2023-02-13T04:15:12.124Z,29.08
2023-02-13T04:18:20.896Z,27.52
2023-02-13T04:21:24.274Z,29.45
2023-02-13T04:24:27.840Z,27.45
2023-02-13T04:27:30.464Z,27.73
2023-02-13T04:30:33.972Z,26.98
2023-02-13T04:33:36.558Z,27.35
2023-02-13T04:36:39.834Z,26.55
2023-02-13T04:39:42.449Z,24.90
2023-02-13T04:42:48.542Z,26.60
2023-02-13T04:45:51.704Z,24.87
2023-02-13T04:48:54.891Z,26.37
2023-02-13T04:51:57.524Z,24.10
2023-02-13T04:55:00.684Z,25.10
2023-02-13T04:58:03.183Z,26.53
2023-02-13T05:01:15.252Z,24.48
2023-02-13T05:04:17.900Z,23.90
2023-02-13T05:07:21.056Z,23.70
2023-02-13T05:10:23.607Z,23.70
2023-02-13T05:13:26.849Z,24.30
2023-02-13T05:16:29.486Z,24.48
2023-02-13T05:19:32.585Z,26.33
2023-02-13T05:22:53.713Z,25.25
2023-02-13T05:25:56.791Z,25.48
2023-02-13T05:29:17.917Z,26.10
2023-02-13T05:32:21.007Z,24.33
2023-02-13T05:35:24.894Z,25.20
2023-02-13T05:38:28.014Z,24.48
2023-02-13T05:41:30.676Z,24.75
2023-02-13T05:44:33.861Z,23.55
2023-02-13T05:47:36.965Z,24.00
2023-02-13T05:50:43.553Z,23.65
2023-02-13T05:53:46.136Z,21.80
2023-02-13T05:56:49.284Z,23.33
2023-02-13T05:59:51.789Z,25.00
2023-02-13T06:02:54.885Z,25.10
2023-02-13T06:05:58.302Z,24.48
2023-02-13T06:09:01.082Z,23.40
2023-02-13T06:12:04.161Z,24.42
2023-02-13T06:15:07.664Z,25.45
2023-02-13T06:18:11.271Z,25.23
2023-02-13T06:21:14.198Z,24.27
2023-02-13T06:24:17.144Z,24.73
2023-02-13T06:27:20.030Z,25.67
2023-02-13T06:30:23.120Z,24.40
2023-02-13T06:33:26.102Z,25.00
2023-02-13T06:36:29.080Z,23.85
2023-02-13T06:39:31.868Z,24.73
2023-02-13T06:42:34.750Z,22.45
2023-02-13T06:45:38.277Z,23.27
2023-02-13T06:51:44.098Z,21.30
2023-02-13T06:54:48.210Z,22.30
2023-02-13T06:57:51.149Z,22.48
2023-02-13T07:00:54.129Z,22.90
2023-02-13T07:03:57.657Z,23.90
2023-02-13T07:07:00.434Z,25.27
2023-02-13T07:10:04.859Z,24.27
2023-02-13T07:13:08.466Z,24.00
2023-02-13T07:16:11.556Z,25.48
2023-02-13T07:22:17.476Z,27.77
2023-02-13T07:25:20.313Z,27.60
2023-02-13T07:28:23.131Z,27.05
2023-02-13T07:31:26.093Z,29.25
2023-02-13T07:34:29.047Z,28.60
2023-02-13T07:37:32.018Z,28.85
2023-02-13T07:40:34.822Z,33.15
2023-02-13T07:43:37.645Z,32.90
2023-02-13T07:46:40.514Z,32.17
2023-02-13T07:49:44.653Z,36.30
2023-02-13T07:52:58.262Z,34.08
2023-02-13T07:56:09.133Z,30.90
2023-02-13T07:59:12.044Z,31.37
2023-02-13T08:02:16.340Z,33.95
2023-02-13T08:05:19.604Z,31.23
2023-02-13T08:08:22.327Z,30.00
2023-02-13T08:11:51.608Z,28.27
2023-02-13T08:14:54.282Z,26.70
2023-02-13T08:17:57.692Z,27.55
2023-02-13T08:21:02.568Z,41.95
2023-02-13T08:24:06.923Z,25.73
2023-02-13T08:27:14.661Z,24.00
2023-02-13T08:30:18.236Z,24.48
2023-02-13T08:36:24.842Z,22.58
2023-02-13T08:39:27.500Z,21.12
2023-02-13T08:42:31.424Z,19.52
2023-02-13T08:45:36.197Z,16.55
2023-02-13T08:48:39.369Z,17.25
2023-02-13T08:51:42.050Z,16.95
2023-02-13T08:54:45.291Z,16.92
2023-02-13T08:57:48.051Z,17.10
2023-02-13T09:00:51.300Z,16.70
2023-02-13T09:03:54.152Z,15.32
2023-02-13T09:06:57.328Z,16.08
2023-02-13T09:09:59.996Z,15.27
2023-02-13T09:13:05.951Z,15.30
2023-02-13T09:16:15.247Z,15.15
2023-02-13T09:19:22.766Z,13.40
2023-02-13T09:22:25.384Z,14.10
2023-02-13T09:25:28.620Z,14.77
2023-02-13T09:28:32.429Z,15.55
2023-02-13T09:31:35.729Z,15.65
2023-02-13T09:34:38.435Z,15.70
2023-02-13T09:37:41.523Z,14.48
2023-02-13T09:41:03.202Z,14.82
2023-02-13T09:44:35.059Z,14.87
2023-02-13T09:47:41.404Z,16.42
2023-02-13T09:50:44.602Z,15.77
2023-02-13T09:54:11.169Z,15.93
2023-02-13T09:57:25.495Z,16.62
2023-02-13T10:00:39.447Z,18.00
2023-02-13T10:03:48.211Z,17.08
2023-02-13T10:07:16.330Z,17.48
2023-02-13T10:10:38.170Z,18.27
2023-02-13T10:13:49.582Z,19.33
2023-02-13T10:17:05.478Z,18.48
2023-02-13T10:20:36.622Z,18.20
2023-02-13T10:23:50.320Z,18.37
2023-02-13T10:26:55.052Z,17.92
2023-02-13T10:30:07.120Z,18.73
2023-02-13T10:33:21.060Z,18.85
2023-02-13T10:36:33.941Z,17.37
2023-02-13T10:39:36.631Z,17.98
2023-02-13T10:42:46.521Z,18.60
2023-02-13T10:45:52.250Z,19.50
2023-02-13T10:49:29.722Z,18.52
2023-02-13T10:52:50.571Z,19.23
2023-02-13T10:56:30.794Z,17.30
2023-02-13T11:00:01.249Z,18.33
2023-02-13T11:03:04.905Z,16.92
2023-02-13T11:06:14.525Z,17.45
2023-02-13T11:09:18.164Z,16.87
2023-02-13T11:12:32.831Z,18.90
2023-02-13T11:15:37.170Z,18.60
2023-02-13T11:18:50.337Z,19.05
2023-02-13T11:21:57.766Z,19.77
2023-02-13T11:25:17.404Z,21.05
2023-02-13T11:28:21.717Z,21.15
2023-02-13T11:31:31.530Z,19.62
2023-02-13T11:34:35.197Z,21.85
2023-02-13T11:40:44.494Z,21.80
2023-02-13T11:44:01.393Z,19.30
2023-02-13T11:47:04.867Z,20.02
2023-02-13T11:50:25.967Z,21.75
2023-02-13T11:53:36.537Z,20.83
2023-02-13T11:57:28.711Z,19.95
2023-02-13T12:00:42.909Z,21.37
2023-02-13T12:04:17.373Z,20.83
2023-02-13T12:07:30.020Z,20.10
2023-02-13T12:10:37.187Z,21.73
2023-02-13T12:13:40.338Z,22.23
2023-02-13T12:16:50.984Z,22.95
2023-02-13T12:19:55.701Z,22.80
2023-02-13T12:23:12.572Z,21.70
2023-02-13T12:26:22.734Z,22.23
2023-02-13T12:29:25.601Z,22.08
2023-02-13T12:32:46.592Z,21.98
2023-02-13T12:36:07.825Z,21.95
2023-02-13T12:39:37.566Z,22.13
2023-02-13T12:42:48.240Z,22.30
2023-02-13T12:46:06.891Z,22.65
2023-02-13T12:49:31.528Z,22.27
2023-02-13T12:52:46.036Z,21.77
2023-02-13T12:56:07.729Z,22.45
2023-02-13T12:59:51.171Z,22.52
2023-02-13T13:02:59.796Z,24.02
2023-02-13T13:06:40.963Z,23.10
2023-02-13T13:09:58.002Z,19.58
2023-02-13T13:13:27.935Z,24.85
2023-02-13T13:16:45.300Z,15.90
2023-02-13T13:20:23.169Z,9.75
2023-02-13T13:23:52.868Z,7.47
2023-02-13T13:26:58.130Z,6.45
2023-02-13T13:30:13.367Z,7.18
2023-02-13T13:33:21.491Z,7.18
2023-02-13T13:36:41.718Z,7.37
2023-02-13T13:39:57.322Z,7.05
2023-02-13T13:43:13.510Z,6.65
2023-02-13T13:46:32.784Z,7.43
2023-02-13T13:49:50.046Z,7.68
2023-02-13T13:53:12.119Z,8.02
2023-02-13T13:56:15.328Z,8.63
2023-02-13T13:59:33.822Z,9.20
2023-02-13T14:02:59.030Z,9.63
2023-02-13T14:06:09.442Z,10.60
2023-02-13T14:09:38.201Z,8.27
2023-02-13T14:13:02.556Z,6.72
2023-02-13T14:16:10.077Z,9.20
2023-02-13T14:19:43.642Z,14.73
2023-02-13T14:22:46.270Z,10.77
2023-02-13T14:28:52.110Z,9.73
2023-02-13T14:32:04.320Z,11.12
2023-02-13T14:35:12.981Z,11.40
2023-02-13T14:38:25.392Z,13.00
2023-02-13T14:41:46.376Z,14.40
2023-02-13T14:44:52.812Z,13.07
2023-02-13T14:47:58.080Z,12.93
2023-02-13T14:51:06.001Z,13.52
2023-02-13T14:54:29.904Z,13.55
2023-02-13T14:57:37.647Z,13.60
2023-02-13T15:00:52.565Z,12.52
2023-02-13T15:04:05.553Z,13.38
2023-02-13T15:07:17.936Z,19.85
2023-02-13T15:10:44.612Z,13.20
2023-02-13T15:13:47.120Z,12.15
2023-02-13T15:16:55.800Z,12.10
2023-02-13T15:20:29.143Z,11.95
2023-02-13T15:23:35.260Z,11.63
2023-02-13T15:26:38.020Z,11.32
2023-02-13T15:29:54.302Z,11.77
2023-02-13T15:33:02.945Z,10.48
2023-02-13T15:36:06.608Z,11.27
2023-02-13T15:39:18.948Z,10.63
2023-02-13T15:42:22.411Z,10.48
2023-02-13T15:45:27.535Z,10.27
2023-02-13T15:48:32.271Z,11.02
2023-02-13T15:51:35.349Z,10.43
2023-02-13T15:54:49.388Z,10.50
2023-02-13T15:57:55.047Z,9.90
2023-02-13T16:01:04.798Z,9.80
2023-02-13T16:04:12.438Z,9.30
2023-02-13T16:07:15.475Z,9.25
2023-02-13T16:10:27.805Z,9.35
2023-02-13T16:13:30.719Z,9.25
2023-02-13T16:16:43.031Z,13.40
2023-02-13T16:19:55.710Z,12.03
2023-02-13T16:23:13.942Z,9.40
2023-02-13T16:26:16.897Z,8.55
2023-02-13T16:29:26.312Z,9.30
2023-02-13T16:32:34.890Z,7.97
2023-02-13T16:35:40.968Z,8.00
2023-02-13T16:38:45.797Z,8.57
2023-02-13T16:41:48.812Z,8.45
2023-02-13T16:45:11.613Z,8.35
2023-02-13T16:48:15.702Z,8.15
2023-02-13T16:51:30.396Z,8.38
2023-02-13T16:54:56.984Z,7.62
2023-02-13T16:58:05.206Z,7.97
2023-02-13T17:01:15.811Z,7.80
2023-02-13T17:04:24.948Z,7.72
2023-02-13T17:07:30.373Z,7.45
2023-02-13T17:10:35.811Z,7.15
2023-02-13T17:13:59.528Z,7.97
2023-02-13T17:17:10.246Z,7.90
2023-02-13T17:20:18.788Z,7.78
2023-02-13T17:23:25.184Z,7.57
2023-02-13T17:26:29.800Z,7.82
2023-02-13T17:29:35.352Z,8.02
2023-02-13T17:32:42.602Z,8.65
2023-02-13T17:35:47.649Z,7.68
2023-02-13T17:38:52.252Z,8.45
2023-02-13T17:41:56.334Z,8.13
2023-02-13T17:45:01.024Z,8.65
2023-02-13T17:48:06.069Z,9.57
2023-02-13T17:51:14.089Z,9.65
2023-02-13T17:54:16.930Z,9.30
2023-02-13T17:57:20.143Z,9.30
2023-02-13T18:00:24.653Z,9.77
2023-02-13T18:03:27.803Z,9.10
2023-02-13T18:06:30.594Z,9.48
2023-02-13T18:09:33.654Z,9.73
2023-02-13T18:12:36.534Z,10.63
2023-02-13T18:15:42.556Z,9.73
2023-02-13T18:18:45.467Z,10.55
2023-02-13T18:21:48.309Z,10.27
2023-02-13T18:24:51.698Z,11.50
2023-02-13T18:27:55.367Z,12.15
2023-02-13T18:30:58.525Z,11.38
2023-02-13T18:34:01.694Z,11.10
2023-02-13T18:37:05.942Z,11.23
2023-02-13T18:40:09.988Z,11.07
2023-02-13T18:43:12.773Z,10.70
2023-02-13T18:46:15.660Z,10.75
2023-02-13T18:49:18.552Z,11.07
2023-02-13T18:52:21.404Z,16.55
2023-02-13T18:55:24.234Z,12.73
2023-02-13T18:58:27.143Z,11.12
2023-02-13T19:01:30.108Z,11.48
2023-02-13T19:04:35.155Z,11.80
2023-02-13T19:07:38.038Z,12.45
2023-02-13T19:10:41.010Z,13.02
2023-02-13T19:13:44.600Z,11.80
2023-02-13T19:16:47.449Z,12.15
2023-02-13T19:19:50.530Z,10.95
2023-02-13T19:22:55.186Z,11.77
2023-02-13T19:25:59.329Z,20.10
2023-02-13T19:29:02.228Z,16.50
2023-02-13T19:32:05.286Z,14.23
2023-02-13T19:35:08.390Z,13.13
2023-02-13T19:38:11.385Z,13.40
2023-02-13T19:41:17.275Z,11.57
2023-02-13T19:44:20.123Z,12.32
2023-02-13T19:47:23.022Z,11.52
2023-02-13T19:50:25.843Z,11.85
2023-02-13T19:53:28.756Z,12.00
2023-02-13T19:56:33.332Z,10.98
2023-02-13T19:59:36.243Z,12.07
2023-02-13T20:02:39.044Z,12.27
2023-02-13T20:05:41.963Z,11.02
2023-02-13T20:08:45.119Z,11.57
2023-02-13T20:11:48.098Z,12.00
2023-02-13T20:14:50.969Z,11.32
2023-02-13T20:17:53.801Z,10.90
2023-02-13T20:20:57.179Z,12.20
2023-02-13T20:24:00.349Z,11.70
2023-02-13T20:27:03.183Z,11.57
2023-02-13T20:30:07.858Z,12.10
2023-02-13T20:33:11.133Z,12.35
2023-02-13T20:36:16.937Z,11.55
2023-02-13T20:39:19.707Z,12.73
2023-02-13T20:42:22.554Z,12.57
2023-02-13T20:45:25.377Z,12.68
2023-02-13T20:48:28.527Z,13.15
2023-02-13T20:51:31.548Z,14.07
2023-02-13T20:54:34.764Z,14.80
2023-02-13T20:57:37.731Z,13.88
2023-02-13T21:00:40.710Z,14.75
2023-02-13T21:03:44.660Z,13.65
2023-02-13T21:06:48.052Z,14.73
2023-02-13T21:12:53.701Z,14.45
2023-02-13T21:16:04.775Z,13.85
2023-02-13T21:19:12.496Z,13.85
2023-02-13T21:22:15.307Z,14.40
2023-02-13T21:25:18.827Z,13.57
2023-02-13T21:28:21.792Z,14.23
2023-02-13T21:31:40.683Z,13.68
2023-02-13T21:34:43.711Z,12.95
2023-02-13T21:37:46.656Z,10.85
2023-02-13T21:40:49.499Z,11.10
2023-02-13T21:43:52.837Z,12.32
2023-02-13T21:46:56.507Z,12.50
2023-02-13T21:50:00.570Z,11.15
2023-02-13T21:53:03.618Z,11.93
2023-02-13T21:56:09.198Z,10.55
2023-02-13T21:59:16.842Z,12.65
2023-02-13T22:02:19.808Z,11.10
2023-02-13T22:05:23.016Z,10.43
2023-02-13T22:08:25.565Z,14.00
2023-02-13T22:11:29.453Z,16.23
2023-02-13T22:14:32.031Z,15.18
2023-02-13T22:17:36.769Z,15.32
2023-02-13T22:20:39.971Z,14.18
2023-02-13T22:23:44.702Z,14.10
2023-02-13T22:26:47.341Z,15.40
2023-02-13T22:29:53.449Z,15.32
2023-02-13T22:32:57.017Z,14.63
2023-02-13T22:36:00.639Z,13.88
2023-02-13T22:39:03.220Z,14.38
2023-02-13T22:42:07.262Z,12.73
2023-02-13T22:45:09.913Z,11.98
2023-02-13T22:48:13.040Z,11.90
2023-02-13T22:51:18.662Z,12.67
2023-02-13T22:54:21.790Z,12.68
2023-02-13T22:57:24.425Z,12.23
2023-02-13T23:00:29.081Z,10.50
2023-02-13T23:03:32.995Z,11.18
2023-02-13T23:06:36.196Z,10.38
2023-02-13T23:09:38.881Z,10.98
2023-02-13T23:12:45.666Z,11.38
2023-02-13T23:15:50.283Z,10.98
2023-02-13T23:18:55.622Z,12.00
2023-02-13T23:21:59.328Z,10.48
2023-02-13T23:25:05.246Z,11.68
2023-02-13T23:28:08.912Z,11.98
2023-02-13T23:31:12.128Z,11.52
2023-02-13T23:34:14.811Z,11.33
2023-02-13T23:37:18.545Z,11.43
2023-02-13T23:40:21.167Z,10.98
2023-02-13T23:43:24.253Z,11.23
2023-02-13T23:46:27.257Z,12.15
2023-02-13T23:49:30.690Z,11.88
2023-02-13T23:52:33.215Z,12.93
2023-02-13T23:55:36.452Z,11.70
2023-02-13T23:58:39.031Z,11.93
